Terminal Aerodrome Forecast
Issued by NWS Portland, ME

Home | Current Version | Previous Version | Text Only | Print | Product List | Glossary On
Versions: 1 2 3 4 5 6 7 8 9 10 11 12 13 14 15 16 17 18 19 20 21 22 23 24 25 26 27 28 29 30 31 32 33 34 35 36 37 38 39 40 41 42 43 44
000
FTUS41 KGYX 160520
TAFPWM
TAF
KPWM 160520Z 1606/1706 19010KT P6SM SCT250
      TEMPO 1611/1613 5SM -SHRA SCT030 BKN050
     FM161300 19006KT 5SM -RA BKN030 OVC050
     FM162100 19005KT P6SM BKN050
     FM170400 32003KT 1/2SM FG OVC003=

USA.gov is the U.S. government's official web portal to all federal, state and local government web resources and services.